sensor_id;sensor_type;location;lat;lon;timestamp;pressure;altitude;pressure_sealevel;temperature;humidity
46782;BME280;32541;46.298;11.506;2023-04-02T00:02:57;88604.13;;;3.19;71.85
46782;BME280;32541;46.298;11.506;2023-04-02T00:08:02;88609.63;;;3.11;71.75
46782;BME280;32541;46.298;11.506;2023-04-02T00:10:31;88611.25;;;3.14;71.74
46782;BME280;32541;46.298;11.506;2023-04-02T00:15:37;88610.53;;;3.14;72.33
46782;BME280;32541;46.298;11.506;2023-04-02T00:18:04;88611.38;;;2.99;72.81
46782;BME280;32541;46.298;11.506;2023-04-02T00:20:33;88611.53;;;3.01;73.23
46782;BME280;32541;46.298;11.506;2023-04-02T00:23:01;88619.81;;;3.03;72.98
46782;BME280;32541;46.298;11.506;2023-04-02T00:25:27;88616.78;;;2.99;72.85
46782;BME280;32541;46.298;11.506;2023-04-02T00:27:55;88615.13;;;3.04;73.00
46782;BME280;32541;46.298;11.506;2023-04-02T00:30:21;88618.22;;;3.00;72.53
46782;BME280;32541;46.298;11.506;2023-04-02T00:32:46;88623.34;;;2.96;72.79
46782;BME280;32541;46.298;11.506;2023-04-02T00:35:19;88625.88;;;2.94;72.77
46782;BME280;32541;46.298;11.506;2023-04-02T00:37:48;88633.09;;;2.99;73.13
46782;BME280;32541;46.298;11.506;2023-04-02T00:40:25;88626.66;;;2.87;73.40
46782;BME280;32541;46.298;11.506;2023-04-02T00:42:55;88620.78;;;2.98;72.63
46782;BME280;32541;46.298;11.506;2023-04-02T00:45:22;88618.34;;;2.85;73.10
46782;BME280;32541;46.298;11.506;2023-04-02T00:47:48;88615.56;;;2.93;72.51
46782;BME280;32541;46.298;11.506;2023-04-02T00:52:41;88614.47;;;2.96;72.60
46782;BME280;32541;46.298;11.506;2023-04-02T00:55:13;88621.50;;;2.99;72.18
46782;BME280;32541;46.298;11.506;2023-04-02T00:57:43;88619.50;;;2.99;72.43
46782;BME280;32541;46.298;11.506;2023-04-02T01:00:28;88619.16;;;2.95;72.36
46782;BME280;32541;46.298;11.506;2023-04-02T01:05:43;88625.81;;;2.77;72.56
46782;BME280;32541;46.298;11.506;2023-04-02T01:13:39;88619.56;;;2.67;73.83
46782;BME280;32541;46.298;11.506;2023-04-02T01:16:22;88624.28;;;2.66;74.33
46782;BME280;32541;46.298;11.506;2023-04-02T01:21:45;88616.66;;;2.65;74.17
46782;BME280;32541;46.298;11.506;2023-04-02T01:24:17;88622.09;;;2.65;74.27
46782;BME280;32541;46.298;11.506;2023-04-02T01:27:00;88618.50;;;2.62;74.91
46782;BME280;32541;46.298;11.506;2023-04-02T01:29:35;88615.06;;;2.62;74.99
46782;BME280;32541;46.298;11.506;2023-04-02T01:32:11;88614.84;;;2.67;75.20
46782;BME280;32541;46.298;11.506;2023-04-02T01:34:37;88618.66;;;2.64;75.37
46782;BME280;32541;46.298;11.506;2023-04-02T01:37:26;88610.19;;;2.60;75.08
46782;BME280;32541;46.298;11.506;2023-04-02T01:45:33;88623.78;;;2.53;75.66
46782;BME280;32541;46.298;11.506;2023-04-02T01:48:01;88622.09;;;2.40;76.52
46782;BME280;32541;46.298;11.506;2023-04-02T01:50:33;88631.66;;;2.41;76.41
46782;BME280;32541;46.298;11.506;2023-04-02T01:53:06;88627.22;;;2.53;76.63
46782;BME280;32541;46.298;11.506;2023-04-02T01:58:08;88629.81;;;2.44;76.44
46782;BME280;32541;46.298;11.506;2023-04-02T02:01:13;88624.09;;;2.32;77.06
46782;BME280;32541;46.298;11.506;2023-04-02T02:03:31;88630.25;;;2.33;76.66
46782;BME280;32541;46.298;11.506;2023-04-02T02:05:58;88634.25;;;2.32;76.47
46782;BME280;32541;46.298;11.506;2023-04-02T02:10:50;88638.16;;;2.38;76.45
46782;BME280;32541;46.298;11.506;2023-04-02T02:13:15;88635.25;;;2.44;76.36
46782;BME280;32541;46.298;11.506;2023-04-02T02:15:41;88642.53;;;2.34;76.78
46782;BME280;32541;46.298;11.506;2023-04-02T02:18:09;88640.94;;;2.31;76.65
46782;BME280;32541;46.298;11.506;2023-04-02T02:20:36;88635.50;;;2.31;77.45
46782;BME280;32541;46.298;11.506;2023-04-02T02:23:02;88642.19;;;2.30;77.45
46782;BME280;32541;46.298;11.506;2023-04-02T02:25:34;88632.59;;;2.36;76.76
46782;BME280;32541;46.298;11.506;2023-04-02T02:35:37;88640.78;;;2.29;77.42
46782;BME280;32541;46.298;11.506;2023-04-02T02:44:01;88636.81;;;2.22;77.26
46782;BME280;32541;46.298;11.506;2023-04-02T02:46:29;88640.22;;;2.30;76.96
46782;BME280;32541;46.298;11.506;2023-04-02T02:48:57;88644.41;;;2.23;77.19
46782;BME280;32541;46.298;11.506;2023-04-02T02:51:38;88634.63;;;2.28;77.08
46782;BME280;32541;46.298;11.506;2023-04-02T02:54:04;88646.63;;;2.10;77.05
46782;BME280;32541;46.298;11.506;2023-04-02T02:56:33;88647.00;;;2.06;77.79
46782;BME280;32541;46.298;11.506;2023-04-02T02:59:03;88653.69;;;2.13;77.44
46782;BME280;32541;46.298;11.506;2023-04-02T03:01:32;88662.19;;;2.09;77.12
46782;BME280;32541;46.298;11.506;2023-04-02T03:03:58;88672.34;;;2.01;77.49
46782;BME280;32541;46.298;11.506;2023-04-02T03:06:23;88674.53;;;1.95;77.66
46782;BME280;32541;46.298;11.506;2023-04-02T03:09:17;88676.47;;;2.02;77.14
46782;BME280;32541;46.298;11.506;2023-04-02T03:15:17;88670.94;;;1.93;78.37
46782;BME280;32541;46.298;11.506;2023-04-02T03:17:59;88669.84;;;1.88;78.03
46782;BME280;32541;46.298;11.506;2023-04-02T03:20:36;88676.56;;;1.80;78.63
46782;BME280;32541;46.298;11.506;2023-04-02T03:23:27;88671.34;;;1.74;78.40
46782;BME280;32541;46.298;11.506;2023-04-02T03:28:28;88676.00;;;1.81;77.49
46782;BME280;32541;46.298;11.506;2023-04-02T03:30:58;88675.66;;;1.69;78.02
46782;BME280;32541;46.298;11.506;2023-04-02T03:33:41;88674.25;;;1.68;77.92
46782;BME280;32541;46.298;11.506;2023-04-02T03:39:08;88687.75;;;1.76;77.36
46782;BME280;32541;46.298;11.506;2023-04-02T03:41:45;88685.06;;;1.61;77.77
46782;BME280;32541;46.298;11.506;2023-04-02T03:44:22;88690.19;;;1.42;78.30
46782;BME280;32541;46.298;11.506;2023-04-02T03:46:56;88684.75;;;1.42;78.33
46782;BME280;32541;46.298;11.506;2023-04-02T03:49:30;88693.94;;;1.46;77.58
46782;BME280;32541;46.298;11.506;2023-04-02T03:52:05;88689.06;;;1.52;77.66
46782;BME280;32541;46.298;11.506;2023-04-02T03:54:31;88691.44;;;1.48;77.63
46782;BME280;32541;46.298;11.506;2023-04-02T03:56:56;88698.09;;;1.55;77.00
46782;BME280;32541;46.298;11.506;2023-04-02T03:59:40;88695.56;;;1.49;77.05
46782;BME280;32541;46.298;11.506;2023-04-02T04:04:40;88696.31;;;1.35;77.61
46782;BME280;32541;46.298;11.506;2023-04-02T04:07:13;88710.22;;;1.31;77.40
46782;BME280;32541;46.298;11.506;2023-04-02T04:09:44;88718.72;;;1.28;77.62
46782;BME280;32541;46.298;11.506;2023-04-02T04:12:30;88720.69;;;1.35;77.25
46782;BME280;32541;46.298;11.506;2023-04-02T04:15:02;88719.06;;;1.32;77.70
46782;BME280;32541;46.298;11.506;2023-04-02T04:17:39;88716.53;;;1.34;76.92
46782;BME280;32541;46.298;11.506;2023-04-02T04:20:16;88723.41;;;1.27;77.54
46782;BME280;32541;46.298;11.506;2023-04-02T04:22:46;88719.59;;;1.38;76.99
46782;BME280;32541;46.298;11.506;2023-04-02T04:25:20;88719.06;;;1.47;76.44
46782;BME280;32541;46.298;11.506;2023-04-02T04:30:36;88732.41;;;1.37;76.79
46782;BME280;32541;46.298;11.506;2023-04-02T04:33:17;88733.88;;;1.23;76.93
46782;BME280;32541;46.298;11.506;2023-04-02T04:35:51;88738.72;;;1.02;78.23
46782;BME280;32541;46.298;11.506;2023-04-02T04:40:54;88747.94;;;0.99;78.44
46782;BME280;32541;46.298;11.506;2023-04-02T04:46:01;88750.25;;;0.87;79.60
46782;BME280;32541;46.298;11.506;2023-04-02T04:48:35;88751.34;;;0.84;79.54
46782;BME280;32541;46.298;11.506;2023-04-02T04:51:08;88761.47;;;0.91;78.77
46782;BME280;32541;46.298;11.506;2023-04-02T04:53:44;88760.56;;;0.89;78.69
46782;BME280;32541;46.298;11.506;2023-04-02T04:56:10;88768.84;;;0.91;78.38
46782;BME280;32541;46.298;11.506;2023-04-02T04:58:54;88777.84;;;0.78;79.16
46782;BME280;32541;46.298;11.506;2023-04-02T05:01:36;88773.31;;;0.73;78.95
46782;BME280;32541;46.298;11.506;2023-04-02T05:04:37;88773.84;;;0.72;79.26
46782;BME280;32541;46.298;11.506;2023-04-02T05:10:05;88777.16;;;0.85;78.91
46782;BME280;32541;46.298;11.506;2023-04-02T05:12:36;88780.19;;;0.74;79.02
46782;BME280;32541;46.298;11.506;2023-04-02T05:15:29;88787.22;;;0.77;79.59
46782;BME280;32541;46.298;11.506;2023-04-02T05:20:39;88803.03;;;0.58;79.91
46782;BME280;32541;46.298;11.506;2023-04-02T05:28:39;88791.56;;;0.88;78.98
46782;BME280;32541;46.298;11.506;2023-04-02T05:33:58;88793.34;;;0.70;80.44
46782;BME280;32541;46.298;11.506;2023-04-02T05:36:26;88795.66;;;0.66;80.01
46782;BME280;32541;46.298;11.506;2023-04-02T05:38:54;88793.34;;;0.70;80.10
46782;BME280;32541;46.298;11.506;2023-04-02T05:41:29;88800.94;;;0.79;80.25
46782;BME280;32541;46.298;11.506;2023-04-02T05:44:11;88805.28;;;0.82;80.43
46782;BME280;32541;46.298;11.506;2023-04-02T05:46:46;88809.28;;;0.89;80.18
46782;BME280;32541;46.298;11.506;2023-04-02T05:49:25;88807.81;;;0.88;80.21
46782;BME280;32541;46.298;11.506;2023-04-02T05:51:55;88809.63;;;0.85;80.81
46782;BME280;32541;46.298;11.506;2023-04-02T05:54:31;88811.22;;;0.81;80.73
46782;BME280;32541;46.298;11.506;2023-04-02T05:57:02;88816.09;;;0.82;80.44
46782;BME280;32541;46.298;11.506;2023-04-02T05:59:31;88820.78;;;0.89;80.31
46782;BME280;32541;46.298;11.506;2023-04-02T06:04:35;88817.94;;;0.95;80.73
46782;BME280;32541;46.298;11.506;2023-04-02T06:07:10;88813.06;;;0.93;80.39
46782;BME280;32541;46.298;11.506;2023-04-02T06:10:10;88814.53;;;1.02;80.67
46782;BME280;32541;46.298;11.506;2023-04-02T06:12:42;88816.34;;;1.15;79.64
46782;BME280;32541;46.298;11.506;2023-04-02T06:15:17;88814.72;;;1.19;79.50
46782;BME280;32541;46.298;11.506;2023-04-02T06:18:24;88822.31;;;1.21;79.22
46782;BME280;32541;46.298;11.506;2023-04-02T06:20:51;88817.81;;;1.23;79.94
46782;BME280;32541;46.298;11.506;2023-04-02T06:26:02;88821.78;;;1.30;79.30
46782;BME280;32541;46.298;11.506;2023-04-02T06:28:37;88818.00;;;1.33;79.10
46782;BME280;32541;46.298;11.506;2023-04-02T06:31:09;88817.13;;;1.45;79.10
46782;BME280;32541;46.298;11.506;2023-04-02T06:33:36;88822.00;;;1.39;79.66
46782;BME280;32541;46.298;11.506;2023-04-02T06:36:03;88823.97;;;1.46;78.92
46782;BME280;32541;46.298;11.506;2023-04-02T06:38:30;88830.13;;;1.47;79.60
46782;BME280;32541;46.298;11.506;2023-04-02T06:41:03;88839.31;;;1.44;81.39
46782;BME280;32541;46.298;11.506;2023-04-02T06:43:40;88831.75;;;1.50;80.11
46782;BME280;32541;46.298;11.506;2023-04-02T06:46:16;88839.16;;;1.57;79.76
46782;BME280;32541;46.298;11.506;2023-04-02T06:48:43;88833.56;;;1.70;80.60
46782;BME280;32541;46.298;11.506;2023-04-02T06:51:13;88827.78;;;1.89;80.42
46782;BME280;32541;46.298;11.506;2023-04-02T06:53:46;88833.19;;;1.96;78.68
46782;BME280;32541;46.298;11.506;2023-04-02T06:58:52;88836.03;;;2.36;76.97
46782;BME280;32541;46.298;11.506;2023-04-02T07:01:21;88827.66;;;2.57;77.33
46782;BME280;32541;46.298;11.506;2023-04-02T07:03:48;88830.78;;;2.93;76.83
46782;BME280;32541;46.298;11.506;2023-04-02T07:06:18;88826.28;;;3.28;77.03
46782;BME280;32541;46.298;11.506;2023-04-02T07:08:44;88829.59;;;3.76;75.38
46782;BME280;32541;46.298;11.506;2023-04-02T07:11:14;88837.34;;;4.29;74.33
46782;BME280;32541;46.298;11.506;2023-04-02T07:13:41;88830.00;;;4.90;71.37
46782;BME280;32541;46.298;11.506;2023-04-02T07:16:21;88831.84;;;5.49;68.03
46782;BME280;32541;46.298;11.506;2023-04-02T07:18:47;88832.06;;;6.24;65.88
46782;BME280;32541;46.298;11.506;2023-04-02T07:21:13;88840.94;;;6.70;60.89
46782;BME280;32541;46.298;11.506;2023-04-02T07:23:38;88822.28;;;7.14;61.57
46782;BME280;32541;46.298;11.506;2023-04-02T07:26:05;88824.00;;;7.48;57.90
46782;BME280;32541;46.298;11.506;2023-04-02T07:28:31;88831.78;;;8.02;56.92
46782;BME280;32541;46.298;11.506;2023-04-02T07:30:56;88827.38;;;8.37;53.93
46782;BME280;32541;46.298;11.506;2023-04-02T07:33:25;88824.63;;;8.89;53.48
46782;BME280;32541;46.298;11.506;2023-04-02T07:35:52;88829.13;;;9.27;51.48
46782;BME280;32541;46.298;11.506;2023-04-02T07:38:18;88816.50;;;9.55;50.35
46782;BME280;32541;46.298;11.506;2023-04-02T07:40:43;88828.16;;;9.76;51.53
46782;BME280;32541;46.298;11.506;2023-04-02T07:43:09;88827.03;;;10.02;50.56
46782;BME280;32541;46.298;11.506;2023-04-02T07:45:35;88828.50;;;10.15;49.00
46782;BME280;32541;46.298;11.506;2023-04-02T07:48:05;88826.34;;;10.25;48.83
46782;BME280;32541;46.298;11.506;2023-04-02T07:50:31;88826.16;;;10.33;48.13
46782;BME280;32541;46.298;11.506;2023-04-02T07:52:56;88826.88;;;10.33;46.61
46782;BME280;32541;46.298;11.506;2023-04-02T07:55:22;88825.69;;;10.71;46.87
46782;BME280;32541;46.298;11.506;2023-04-02T07:57:52;88826.00;;;11.12;46.20
46782;BME280;32541;46.298;11.506;2023-04-02T08:00:18;88831.38;;;11.22;44.21
46782;BME280;32541;46.298;11.506;2023-04-02T08:02:45;88830.69;;;10.51;46.60
46782;BME280;32541;46.298;11.506;2023-04-02T08:05:11;88837.63;;;9.96;46.04
46782;BME280;32541;46.298;11.506;2023-04-02T08:07:37;88833.91;;;9.92;47.01
46782;BME280;32541;46.298;11.506;2023-04-02T08:10:04;88833.31;;;10.61;48.56
46782;BME280;32541;46.298;11.506;2023-04-02T08:12:30;88830.47;;;10.71;46.40
46782;BME280;32541;46.298;11.506;2023-04-02T08:14:55;88837.97;;;10.70;46.14
46782;BME280;32541;46.298;11.506;2023-04-02T08:17:21;88829.50;;;10.66;45.04
46782;BME280;32541;46.298;11.506;2023-04-02T08:19:47;88837.88;;;10.80;43.28
46782;BME280;32541;46.298;11.506;2023-04-02T08:22:12;88828.28;;;11.15;44.52
46782;BME280;32541;46.298;11.506;2023-04-02T08:24:38;88838.78;;;10.26;48.69
46782;BME280;32541;46.298;11.506;2023-04-02T08:27:03;88834.19;;;10.07;46.45
46782;BME280;32541;46.298;11.506;2023-04-02T08:29:29;88830.25;;;10.11;47.66
46782;BME280;32541;46.298;11.506;2023-04-02T08:32:00;88831.66;;;10.56;44.98
46782;BME280;32541;46.298;11.506;2023-04-02T08:34:26;88828.63;;;11.10;43.36
46782;BME280;32541;46.298;11.506;2023-04-02T08:36:55;88834.03;;;10.85;44.47
46782;BME280;32541;46.298;11.506;2023-04-02T08:39:21;88831.72;;;11.28;46.72
46782;BME280;32541;46.298;11.506;2023-04-02T08:47:06;88827.44;;;11.50;41.62
46782;BME280;32541;46.298;11.506;2023-04-02T08:49:39;88833.69;;;11.50;43.75
46782;BME280;32541;46.298;11.506;2023-04-02T08:52:23;88830.50;;;11.79;40.23
46782;BME280;32541;46.298;11.506;2023-04-02T08:54:49;88817.78;;;11.86;41.00
46782;BME280;32541;46.298;11.506;2023-04-02T08:57:26;88826.22;;;12.79;41.69
46782;BME280;32541;46.298;11.506;2023-04-02T09:00:35;88828.13;;;11.62;36.43
46782;BME280;32541;46.298;11.506;2023-04-02T09:05:32;88829.00;;;11.53;38.28
46782;BME280;32541;46.298;11.506;2023-04-02T09:08:01;88829.56;;;11.63;37.81
46782;BME280;32541;46.298;11.506;2023-04-02T09:10:41;88844.06;;;11.75;39.81
46782;BME280;32541;46.298;11.506;2023-04-02T09:13:24;88830.03;;;11.71;36.98
46782;BME280;32541;46.298;11.506;2023-04-02T09:18:59;88838.69;;;11.54;36.80
46782;BME280;32541;46.298;11.506;2023-04-02T09:21:40;88838.28;;;11.34;39.32
46782;BME280;32541;46.298;11.506;2023-04-02T09:24:11;88842.53;;;11.00;38.17
46782;BME280;32541;46.298;11.506;2023-04-02T09:26:40;88843.59;;;10.72;39.23
46782;BME280;32541;46.298;11.506;2023-04-02T09:31:39;88851.00;;;10.81;41.03
46782;BME280;32541;46.298;11.506;2023-04-02T09:34:32;88847.66;;;10.94;40.16
46782;BME280;32541;46.298;11.506;2023-04-02T09:37:16;88851.25;;;10.85;39.63
46782;BME280;32541;46.298;11.506;2023-04-02T09:39:42;88850.78;;;10.54;38.97
46782;BME280;32541;46.298;11.506;2023-04-02T09:42:28;88845.88;;;10.52;40.63
46782;BME280;32541;46.298;11.506;2023-04-02T09:47:42;88838.44;;;10.32;39.61
46782;BME280;32541;46.298;11.506;2023-04-02T09:50:24;88844.06;;;10.34;39.58
46782;BME280;32541;46.298;11.506;2023-04-02T09:52:51;88850.88;;;10.44;40.30
46782;BME280;32541;46.298;11.506;2023-04-02T09:57:46;88849.34;;;10.41;39.58
46782;BME280;32541;46.298;11.506;2023-04-02T10:02:39;88849.53;;;10.34;39.89
46782;BME280;32541;46.298;11.506;2023-04-02T10:05:09;88849.81;;;10.73;41.18
46782;BME280;32541;46.298;11.506;2023-04-02T10:07:44;88850.78;;;10.89;40.77
46782;BME280;32541;46.298;11.506;2023-04-02T10:10:22;88846.22;;;11.05;41.69
46782;BME280;32541;46.298;11.506;2023-04-02T10:12:56;88845.59;;;11.30;40.46
46782;BME280;32541;46.298;11.506;2023-04-02T10:15:28;88847.00;;;11.42;39.98
46782;BME280;32541;46.298;11.506;2023-04-02T10:18:12;88844.88;;;11.66;39.90
46782;BME280;32541;46.298;11.506;2023-04-02T10:20:42;88847.25;;;11.83;36.34
46782;BME280;32541;46.298;11.506;2023-04-02T10:23:14;88845.97;;;11.24;38.32
46782;BME280;32541;46.298;11.506;2023-04-02T10:31:22;88844.19;;;10.82;38.78
46782;BME280;32541;46.298;11.506;2023-04-02T10:33:59;88839.47;;;11.43;39.55
46782;BME280;32541;46.298;11.506;2023-04-02T10:36:37;88834.75;;;11.57;38.15
46782;BME280;32541;46.298;11.506;2023-04-02T10:42:10;88841.69;;;10.86;38.96
46782;BME280;32541;46.298;11.506;2023-04-02T10:48:15;88849.94;;;10.98;38.00
46782;BME280;32541;46.298;11.506;2023-04-02T10:53:30;88851.72;;;10.58;38.57
46782;BME280;32541;46.298;11.506;2023-04-02T10:56:00;88844.81;;;10.81;38.53
46782;BME280;32541;46.298;11.506;2023-04-02T10:58:30;88836.66;;;10.94;38.01
46782;BME280;32541;46.298;11.506;2023-04-02T11:01:04;88841.81;;;11.00;38.28
46782;BME280;32541;46.298;11.506;2023-04-02T11:03:38;88832.81;;;10.99;39.42
46782;BME280;32541;46.298;11.506;2023-04-02T11:06:16;88825.25;;;11.23;39.73
46782;BME280;32541;46.298;11.506;2023-04-02T11:08:46;88789.81;;;11.29;40.19
46782;BME280;32541;46.298;11.506;2023-04-02T11:11:13;88822.00;;;11.27;40.90
46782;BME280;32541;46.298;11.506;2023-04-02T11:14:44;88842.56;;;11.37;40.29
46782;BME280;32541;46.298;11.506;2023-04-02T11:16:47;88837.06;;;11.49;38.95
46782;BME280;32541;46.298;11.506;2023-04-02T11:29:43;88847.97;;;11.35;38.29
46782;BME280;32541;46.298;11.506;2023-04-02T11:40:00;88853.44;;;11.47;37.33
46782;BME280;32541;46.298;11.506;2023-04-02T11:42:29;88860.41;;;11.36;37.40
46782;BME280;32541;46.298;11.506;2023-04-02T11:44:58;88859.78;;;11.38;38.70
46782;BME280;32541;46.298;11.506;2023-04-02T11:47:26;88856.72;;;11.20;38.45
46782;BME280;32541;46.298;11.506;2023-04-02T11:52:48;88864.16;;;11.18;40.23
46782;BME280;32541;46.298;11.506;2023-04-02T11:55:21;88858.63;;;11.18;39.96
46782;BME280;32541;46.298;11.506;2023-04-02T11:58:07;88862.25;;;11.08;38.93
46782;BME280;32541;46.298;11.506;2023-04-02T12:11:45;88863.19;;;10.90;38.82
46782;BME280;32541;46.298;11.506;2023-04-02T12:17:20;88862.25;;;10.85;39.51
46782;BME280;32541;46.298;11.506;2023-04-02T12:19:50;88866.56;;;11.00;39.21
46782;BME280;32541;46.298;11.506;2023-04-02T12:22:23;88873.38;;;11.10;38.90
46782;BME280;32541;46.298;11.506;2023-04-02T12:24:49;88867.13;;;11.22;39.34
46782;BME280;32541;46.298;11.506;2023-04-02T12:27:24;88867.63;;;11.06;39.61
46782;BME280;32541;46.298;11.506;2023-04-02T12:29:53;88865.13;;;11.10;38.44
46782;BME280;32541;46.298;11.506;2023-04-02T12:32:28;88865.13;;;11.22;38.47
46782;BME280;32541;46.298;11.506;2023-04-02T12:34:56;88870.56;;;11.45;37.96
46782;BME280;32541;46.298;11.506;2023-04-02T12:37:27;88868.56;;;11.34;38.09
46782;BME280;32541;46.298;11.506;2023-04-02T12:40:12;88867.34;;;11.49;39.53
46782;BME280;32541;46.298;11.506;2023-04-02T12:42:40;88867.00;;;11.43;38.19
46782;BME280;32541;46.298;11.506;2023-04-02T12:45:06;88869.22;;;11.58;38.14
46782;BME280;32541;46.298;11.506;2023-04-02T12:47:32;88862.84;;;11.67;38.35
46782;BME280;32541;46.298;11.506;2023-04-02T12:49:59;88868.75;;;11.98;39.29
46782;BME280;32541;46.298;11.506;2023-04-02T12:52:27;88861.19;;;12.24;37.16
46782;BME280;32541;46.298;11.506;2023-04-02T12:55:00;88858.50;;;12.38;36.93
46782;BME280;32541;46.298;11.506;2023-04-02T12:57:33;88855.38;;;12.57;37.30
46782;BME280;32541;46.298;11.506;2023-04-02T13:02:50;88860.81;;;12.68;37.57
46782;BME280;32541;46.298;11.506;2023-04-02T13:05:39;88862.69;;;12.91;37.46
46782;BME280;32541;46.298;11.506;2023-04-02T13:08:23;88861.16;;;12.88;36.88
46782;BME280;32541;46.298;11.506;2023-04-02T13:11:01;88866.72;;;12.63;35.93
46782;BME280;32541;46.298;11.506;2023-04-02T13:13:34;88863.94;;;12.49;36.30
46782;BME280;32541;46.298;11.506;2023-04-02T13:16:25;88857.53;;;12.58;36.48
46782;BME280;32541;46.298;11.506;2023-04-02T13:18:50;88852.13;;;12.60;36.99
46782;BME280;32541;46.298;11.506;2023-04-02T13:23:45;88853.16;;;12.80;37.40
46782;BME280;32541;46.298;11.506;2023-04-02T13:28:36;88834.66;;;12.56;34.49
46782;BME280;32541;46.298;11.506;2023-04-02T13:31:02;88840.97;;;11.94;35.48
46782;BME280;32541;46.298;11.506;2023-04-02T13:33:29;88843.34;;;11.63;34.70
46782;BME280;32541;46.298;11.506;2023-04-02T13:35:54;88837.34;;;12.03;35.33
46782;BME280;32541;46.298;11.506;2023-04-02T13:38:20;88849.19;;;11.81;34.84
46782;BME280;32541;46.298;11.506;2023-04-02T13:40:45;88847.72;;;11.43;36.23
46782;BME280;32541;46.298;11.506;2023-04-02T13:43:16;88846.38;;;11.44;34.06
46782;BME280;32541;46.298;11.506;2023-04-02T13:45:46;88829.31;;;11.70;35.59
46782;BME280;32541;46.298;11.506;2023-04-02T13:48:14;88842.59;;;11.26;35.81
46782;BME280;32541;46.298;11.506;2023-04-02T13:50:40;88847.63;;;11.29;35.58
46782;BME280;32541;46.298;11.506;2023-04-02T13:53:07;88860.50;;;11.50;37.55
46782;BME280;32541;46.298;11.506;2023-04-02T13:55:39;88856.72;;;11.68;36.71
46782;BME280;32541;46.298;11.506;2023-04-02T13:58:06;88853.44;;;11.47;36.61
46782;BME280;32541;46.298;11.506;2023-04-02T14:00:35;88853.56;;;11.49;36.72
46782;BME280;32541;46.298;11.506;2023-04-02T14:03:11;88855.47;;;11.46;36.95
46782;BME280;32541;46.298;11.506;2023-04-02T14:08:57;88863.00;;;11.57;36.04
46782;BME280;32541;46.298;11.506;2023-04-02T14:11:41;88854.94;;;11.61;36.22
46782;BME280;32541;46.298;11.506;2023-04-02T14:22:03;88866.91;;;11.66;36.07
46782;BME280;32541;46.298;11.506;2023-04-02T14:25:06;88864.28;;;11.68;35.70
46782;BME280;32541;46.298;11.506;2023-04-02T14:27:44;88859.03;;;11.72;36.02
46782;BME280;32541;46.298;11.506;2023-04-02T14:30:35;88865.47;;;11.77;33.87
46782;BME280;32541;46.298;11.506;2023-04-02T14:33:37;88866.09;;;11.75;34.68
46782;BME280;32541;46.298;11.506;2023-04-02T14:39:20;88856.28;;;11.97;34.44
46782;BME280;32541;46.298;11.506;2023-04-02T14:41:57;88858.66;;;12.03;35.70
46782;BME280;32541;46.298;11.506;2023-04-02T14:44:28;88867.78;;;12.05;35.70
46782;BME280;32541;46.298;11.506;2023-04-02T14:47:06;88856.91;;;12.21;32.64
46782;BME280;32541;46.298;11.506;2023-04-02T14:49:39;88864.69;;;11.99;34.27
46782;BME280;32541;46.298;11.506;2023-04-02T14:52:16;88859.03;;;11.60;34.13
46782;BME280;32541;46.298;11.506;2023-04-02T14:54:50;88865.00;;;11.68;34.22
46782;BME280;32541;46.298;11.506;2023-04-02T14:57:29;88857.94;;;11.77;33.72
46782;BME280;32541;46.298;11.506;2023-04-02T14:59:59;88858.00;;;11.42;34.71
46782;BME280;32541;46.298;11.506;2023-04-02T15:02:29;88862.31;;;11.45;33.89
46782;BME280;32541;46.298;11.506;2023-04-02T15:07:42;88865.94;;;11.85;35.84
46782;BME280;32541;46.298;11.506;2023-04-02T15:12:42;88872.75;;;11.84;34.90
46782;BME280;32541;46.298;11.506;2023-04-02T15:15:30;88867.09;;;11.93;35.06
46782;BME280;32541;46.298;11.506;2023-04-02T15:18:00;88866.75;;;11.87;33.94
46782;BME280;32541;46.298;11.506;2023-04-02T15:20:35;88866.25;;;11.91;32.72
46782;BME280;32541;46.298;11.506;2023-04-02T15:23:18;88872.88;;;11.86;33.58
46782;BME280;32541;46.298;11.506;2023-04-02T15:25:52;88866.16;;;11.89;33.94
46782;BME280;32541;46.298;11.506;2023-04-02T15:28:28;88873.31;;;11.94;34.96
46782;BME280;32541;46.298;11.506;2023-04-02T15:30:58;88866.53;;;11.83;35.08
46782;BME280;32541;46.298;11.506;2023-04-02T15:33:44;88869.41;;;12.10;35.14
46782;BME280;32541;46.298;11.506;2023-04-02T15:36:28;88876.81;;;12.19;35.19
46782;BME280;32541;46.298;11.506;2023-04-02T15:41:40;88866.22;;;12.53;34.79
46782;BME280;32541;46.298;11.506;2023-04-02T15:44:15;88876.97;;;12.35;34.86
46782;BME280;32541;46.298;11.506;2023-04-02T15:49:41;88866.56;;;12.72;34.28
46782;BME280;32541;46.298;11.506;2023-04-02T15:52:21;88867.16;;;12.71;33.84
46782;BME280;32541;46.298;11.506;2023-04-02T15:57:49;88861.03;;;12.34;33.97
46782;BME280;32541;46.298;11.506;2023-04-02T16:00:27;88867.50;;;12.38;34.11
46782;BME280;32541;46.298;11.506;2023-04-02T16:03:26;88863.94;;;12.24;33.50
46782;BME280;32541;46.298;11.506;2023-04-02T16:06:10;88875.13;;;12.14;33.98
46782;BME280;32541;46.298;11.506;2023-04-02T16:11:21;88876.16;;;12.07;35.68
46782;BME280;32541;46.298;11.506;2023-04-02T16:13:47;88884.50;;;11.84;34.95
46782;BME280;32541;46.298;11.506;2023-04-02T16:16:23;88885.91;;;11.85;34.76
46782;BME280;32541;46.298;11.506;2023-04-02T16:21:21;88893.88;;;11.56;35.53
46782;BME280;32541;46.298;11.506;2023-04-02T16:23:48;88893.41;;;11.59;35.21
46782;BME280;32541;46.298;11.506;2023-04-02T16:32:02;88894.28;;;11.27;36.37
46782;BME280;32541;46.298;11.506;2023-04-02T16:37:34;88903.03;;;11.12;36.35
46782;BME280;32541;46.298;11.506;2023-04-02T16:40:15;88915.59;;;11.03;36.19
46782;BME280;32541;46.298;11.506;2023-04-02T16:43:03;88911.03;;;11.08;36.34
46782;BME280;32541;46.298;11.506;2023-04-02T16:45:47;88922.19;;;10.98;36.84
46782;BME280;32541;46.298;11.506;2023-04-02T16:54:07;88921.22;;;10.82;37.56
46782;BME280;32541;46.298;11.506;2023-04-02T16:59:34;88928.47;;;10.66;37.42